createdAt,value
2023-05-06T00:00:52.051Z,11.08
2023-05-06T00:01:48.832Z,10.79
2023-05-06T00:02:45.941Z,8.40
2023-05-06T00:03:42.865Z,10.15
2023-05-06T00:04:39.783Z,10.08
2023-05-06T00:05:36.846Z,10.09
2023-05-06T00:06:34.104Z,10.96
2023-05-06T00:07:30.989Z,10.48
2023-05-06T00:08:27.743Z,10.58
2023-05-06T00:09:24.546Z,10.37
2023-05-06T00:10:21.415Z,10.80
2023-05-06T00:11:18.121Z,10.54
2023-05-06T00:12:15.199Z,10.63
2023-05-06T00:13:12.915Z,10.59
2023-05-06T00:14:09.756Z,10.35
2023-05-06T00:15:07.554Z,8.52
2023-05-06T00:16:05.025Z,10.78
2023-05-06T00:17:01.930Z,9.92
2023-05-06T00:17:58.742Z,10.45
2023-05-06T00:18:55.630Z,10.54
2023-05-06T00:19:52.529Z,8.43
2023-05-06T00:20:49.875Z,10.22
2023-05-06T00:21:46.730Z,9.79
2023-05-06T00:22:43.548Z,10.33
2023-05-06T00:23:40.300Z,10.30
2023-05-06T00:24:37.000Z,10.14
2023-05-06T00:25:33.778Z,9.89
2023-05-06T00:26:30.837Z,10.78
2023-05-06T00:27:27.673Z,10.59
2023-05-06T00:28:24.526Z,10.44
2023-05-06T00:29:21.281Z,10.70
2023-05-06T00:30:18.060Z,8.50
2023-05-06T00:31:14.817Z,8.53
2023-05-06T00:32:11.705Z,8.07
2023-05-06T00:33:08.564Z,10.16
2023-05-06T00:34:05.432Z,9.61
2023-05-06T00:35:02.400Z,9.47
2023-05-06T00:35:59.263Z,10.20
2023-05-06T00:36:56.039Z,10.34
2023-05-06T00:38:11.401Z,9.38
2023-05-06T00:39:08.313Z,10.96
2023-05-06T00:40:05.647Z,8.58
2023-05-06T00:41:03.434Z,10.00
2023-05-06T00:42:04.009Z,10.37
2023-05-06T00:43:00.829Z,10.46
2023-05-06T00:43:57.535Z,9.84
2023-05-06T00:44:54.291Z,9.25
2023-05-06T00:45:52.077Z,10.22
2023-05-06T00:46:48.908Z,8.71
2023-05-06T00:47:45.920Z,9.44
2023-05-06T00:48:44.381Z,10.38
2023-05-06T00:49:41.409Z,9.15
2023-05-06T00:50:40.737Z,9.14
2023-05-06T00:51:37.581Z,9.84
2023-05-06T00:52:34.511Z,9.94
2023-05-06T00:53:31.340Z,9.91
2023-05-06T00:54:29.835Z,9.03
2023-05-06T00:55:27.612Z,9.84
2023-05-06T00:56:24.730Z,9.10
2023-05-06T00:57:22.080Z,9.60
2023-05-06T00:58:20.722Z,9.98
2023-05-06T00:59:17.916Z,9.63
2023-05-06T01:00:15.835Z,9.35
2023-05-06T01:01:13.138Z,9.36
2023-05-06T01:02:09.898Z,10.35
2023-05-06T01:03:06.742Z,10.17
2023-05-06T01:04:03.900Z,9.24
2023-05-06T01:05:01.098Z,9.65
2023-05-06T01:06:16.245Z,10.14
2023-05-06T01:07:12.942Z,10.14
2023-05-06T01:08:32.513Z,9.62
2023-05-06T01:09:43.002Z,9.97
2023-05-06T01:10:52.748Z,9.52
2023-05-06T01:11:52.572Z,10.20
2023-05-06T01:12:58.561Z,10.25
2023-05-06T01:13:55.360Z,10.27
2023-05-06T01:15:08.772Z,10.14
2023-05-06T01:16:10.335Z,10.11
2023-05-06T01:17:12.408Z,9.70
2023-05-06T01:18:12.549Z,10.39
2023-05-06T01:19:29.378Z,9.42
2023-05-06T01:20:27.680Z,9.71
2023-05-06T01:21:26.805Z,7.92
2023-05-06T01:22:24.728Z,9.61
2023-05-06T01:23:21.787Z,10.03
2023-05-06T01:24:18.620Z,9.94
2023-05-06T01:25:23.209Z,9.87
2023-05-06T01:26:20.058Z,9.33
2023-05-06T01:27:18.239Z,10.86
2023-05-06T01:28:15.030Z,10.88
2023-05-06T01:29:12.136Z,10.52
2023-05-06T01:30:09.582Z,10.49
2023-05-06T01:31:17.201Z,10.68
2023-05-06T01:32:13.972Z,10.74
2023-05-06T01:33:33.022Z,10.74
2023-05-06T01:34:44.790Z,10.48
2023-05-06T01:36:26.072Z,10.18
2023-05-06T01:37:39.947Z,9.33
2023-05-06T01:39:09.450Z,9.51
2023-05-06T01:40:07.738Z,10.33
2023-05-06T01:41:05.821Z,10.23
2023-05-06T01:42:03.159Z,10.40
2023-05-06T01:43:04.917Z,10.28
2023-05-06T01:44:05.957Z,10.57
2023-05-06T01:45:07.266Z,10.51
2023-05-06T01:46:06.630Z,9.61
2023-05-06T01:47:05.786Z,9.46
2023-05-06T01:48:03.051Z,10.28
2023-05-06T01:49:05.819Z,10.38
2023-05-06T01:50:04.218Z,9.77
2023-05-06T01:51:02.721Z,8.32
2023-05-06T01:52:00.205Z,9.82
2023-05-06T01:53:01.573Z,9.08
2023-05-06T01:53:58.395Z,9.42
2023-05-06T01:54:55.101Z,9.54
2023-05-06T01:55:51.877Z,9.34
2023-05-06T01:56:48.706Z,10.26
2023-05-06T01:57:45.612Z,9.21
2023-05-06T01:58:42.957Z,9.61
2023-05-06T01:59:39.755Z,10.26
2023-05-06T02:00:38.591Z,10.20
2023-05-06T02:01:35.518Z,8.78
2023-05-06T02:02:32.404Z,9.32
2023-05-06T02:03:29.435Z,9.35
2023-05-06T02:04:26.361Z,10.07
2023-05-06T02:05:23.641Z,8.82
2023-05-06T02:06:20.390Z,8.06
2023-05-06T02:07:17.258Z,9.12
2023-05-06T02:08:14.078Z,9.50
2023-05-06T02:09:10.867Z,10.22
2023-05-06T02:10:08.859Z,7.77
2023-05-06T02:11:05.652Z,9.84
2023-05-06T02:12:02.369Z,9.19
2023-05-06T02:12:59.218Z,10.14
2023-05-06T02:13:56.076Z,9.99
2023-05-06T02:14:52.802Z,10.11
2023-05-06T02:15:54.202Z,9.81
2023-05-06T02:16:51.107Z,9.42
2023-05-06T02:17:47.901Z,9.84
2023-05-06T02:18:45.874Z,10.14
2023-05-06T02:19:42.641Z,8.08
2023-05-06T02:20:39.497Z,10.04
2023-05-06T02:21:36.635Z,8.99
2023-05-06T02:22:33.370Z,8.73
2023-05-06T02:23:30.514Z,8.90
2023-05-06T02:24:27.252Z,9.40
2023-05-06T02:25:24.029Z,9.66
2023-05-06T02:26:20.993Z,9.55
2023-05-06T02:27:17.774Z,9.68
2023-05-06T02:28:14.583Z,8.18
2023-05-06T02:29:11.351Z,8.70
2023-05-06T02:30:08.391Z,9.46
2023-05-06T02:31:05.917Z,7.80
2023-05-06T02:32:02.812Z,9.21
2023-05-06T02:32:59.632Z,9.15
2023-05-06T02:33:56.434Z,9.84
2023-05-06T02:34:53.359Z,9.90
2023-05-06T02:35:51.027Z,8.84
2023-05-06T02:36:47.804Z,10.19
2023-05-06T02:37:44.519Z,9.54
2023-05-06T02:38:41.429Z,10.09
2023-05-06T02:39:38.176Z,9.46
2023-05-06T02:40:35.411Z,7.97
2023-05-06T02:41:32.156Z,9.60
2023-05-06T02:42:28.917Z,9.17
2023-05-06T02:43:25.741Z,7.95
2023-05-06T02:44:22.495Z,8.22
2023-05-06T02:45:19.373Z,10.17
2023-05-06T02:46:16.211Z,9.51
2023-05-06T02:47:13.116Z,9.46
2023-05-06T02:48:09.847Z,9.49
2023-05-06T02:49:06.575Z,9.50
2023-05-06T02:50:03.775Z,8.86
2023-05-06T02:51:00.690Z,8.66
2023-05-06T02:51:57.505Z,9.84
2023-05-06T02:52:54.306Z,9.48
2023-05-06T02:53:51.040Z,8.88
2023-05-06T02:54:47.941Z,10.17
2023-05-06T02:55:44.661Z,10.00
2023-05-06T02:56:43.356Z,9.95
2023-05-06T02:57:40.201Z,9.06
2023-05-06T02:58:36.977Z,10.17
2023-05-06T02:59:34.792Z,9.60
2023-05-06T03:00:31.642Z,9.31
2023-05-06T03:01:28.483Z,8.76
2023-05-06T03:02:25.335Z,9.53
2023-05-06T03:03:23.143Z,9.74
2023-05-06T03:04:19.883Z,8.97
2023-05-06T03:05:16.767Z,9.02
2023-05-06T03:06:13.638Z,8.86
2023-05-06T03:07:10.357Z,9.54
2023-05-06T03:08:07.168Z,9.49
2023-05-06T03:09:05.095Z,9.29
2023-05-06T03:10:01.856Z,9.81
2023-05-06T03:10:58.575Z,9.72
2023-05-06T03:11:57.171Z,9.33
2023-05-06T03:12:53.889Z,10.00
2023-05-06T03:13:51.357Z,8.91
2023-05-06T03:14:48.220Z,9.37
2023-05-06T03:15:45.052Z,9.86
2023-05-06T03:16:42.276Z,9.61
2023-05-06T03:17:39.226Z,8.80
2023-05-06T03:18:36.138Z,8.22
2023-05-06T03:19:32.975Z,8.78
2023-05-06T03:20:29.811Z,9.62
2023-05-06T03:21:26.979Z,8.98
2023-05-06T03:22:23.851Z,9.57
2023-05-06T03:23:20.594Z,9.53
2023-05-06T03:24:18.187Z,9.74
2023-05-06T03:25:15.282Z,9.61
2023-05-06T03:26:12.049Z,9.29
2023-05-06T03:27:08.822Z,9.81
2023-05-06T03:28:06.040Z,9.19
2023-05-06T03:29:02.857Z,10.04
2023-05-06T03:29:59.602Z,8.32
2023-05-06T03:30:56.435Z,8.23
2023-05-06T03:31:56.343Z,8.12
2023-05-06T03:32:54.965Z,9.17
2023-05-06T03:33:51.770Z,9.32
2023-05-06T03:34:48.515Z,9.64
2023-05-06T03:35:45.298Z,9.25
2023-05-06T03:36:42.045Z,8.13
2023-05-06T03:37:38.873Z,9.76
2023-05-06T03:38:35.699Z,9.80
2023-05-06T03:39:32.420Z,9.70
2023-05-06T03:40:29.358Z,8.18
2023-05-06T03:41:26.203Z,9.40
2023-05-06T03:42:23.074Z,9.74
2023-05-06T03:43:19.799Z,9.60
2023-05-06T03:44:16.632Z,9.87
2023-05-06T03:45:13.472Z,9.87
2023-05-06T03:46:11.333Z,9.03
2023-05-06T03:47:08.043Z,9.94
2023-05-06T03:48:04.984Z,9.10
2023-05-06T03:49:02.855Z,9.90
2023-05-06T03:49:59.729Z,9.97
2023-05-06T03:50:56.473Z,9.60
2023-05-06T03:51:53.626Z,10.14
2023-05-06T03:52:51.118Z,9.68
2023-05-06T03:53:51.811Z,10.34
2023-05-06T03:54:50.347Z,9.56
2023-05-06T03:55:47.092Z,9.65
2023-05-06T03:56:43.832Z,9.27
2023-05-06T03:57:40.768Z,10.03
2023-05-06T03:58:37.549Z,9.22
2023-05-06T03:59:34.287Z,9.71
2023-05-06T04:00:31.255Z,9.82
2023-05-06T04:01:28.081Z,9.72
2023-05-06T04:02:24.985Z,9.73
2023-05-06T04:03:21.855Z,10.78
2023-05-06T04:04:18.632Z,9.15
2023-05-06T04:05:16.256Z,10.63
2023-05-06T04:06:13.239Z,10.72
2023-05-06T04:07:10.270Z,10.13
2023-05-06T04:08:07.086Z,10.82
2023-05-06T04:09:06.380Z,9.74
2023-05-06T04:10:03.469Z,10.48
2023-05-06T04:11:05.209Z,10.11
2023-05-06T04:12:03.700Z,10.69
2023-05-06T04:13:00.901Z,10.45
2023-05-06T04:13:57.750Z,10.72
2023-05-06T04:14:54.513Z,10.87
2023-05-06T04:15:51.351Z,10.20
2023-05-06T04:17:06.846Z,10.97
2023-05-06T04:18:04.903Z,8.86
2023-05-06T04:19:05.734Z,9.68
2023-05-06T04:20:11.300Z,11.31
2023-05-06T04:21:08.186Z,9.36
2023-05-06T04:22:04.935Z,11.28
2023-05-06T04:23:02.287Z,10.73
2023-05-06T04:23:59.251Z,10.72
2023-05-06T04:24:55.991Z,10.57
2023-05-06T04:25:53.077Z,11.56
2023-05-06T04:26:50.129Z,11.57
2023-05-06T04:27:47.170Z,11.80
2023-05-06T04:28:43.961Z,11.46
2023-05-06T04:29:40.862Z,10.21
2023-05-06T04:30:37.837Z,11.98
2023-05-06T04:31:35.336Z,11.68
2023-05-06T04:32:32.147Z,11.66
2023-05-06T04:33:29.646Z,11.84
2023-05-06T04:34:27.856Z,11.69
2023-05-06T04:35:24.826Z,11.56
2023-05-06T04:36:21.810Z,11.88
2023-05-06T04:37:21.551Z,11.73
2023-05-06T04:38:18.492Z,10.72
2023-05-06T04:39:16.397Z,12.01
2023-05-06T04:40:13.821Z,12.33
2023-05-06T04:41:12.155Z,12.57
2023-05-06T04:42:08.971Z,11.74
2023-05-06T04:43:05.770Z,12.59
2023-05-06T04:44:03.633Z,10.92
2023-05-06T04:45:00.790Z,12.46
2023-05-06T04:45:58.054Z,11.65
2023-05-06T04:46:54.885Z,11.90
2023-05-06T04:47:52.555Z,11.60
2023-05-06T04:48:49.555Z,11.09
2023-05-06T04:49:46.342Z,10.86
2023-05-06T04:50:43.112Z,12.31
2023-05-06T04:51:39.932Z,11.87
2023-05-06T04:52:37.491Z,11.75
2023-05-06T04:53:34.311Z,12.81
2023-05-06T04:54:31.190Z,11.80
2023-05-06T04:55:28.061Z,12.89
2023-05-06T04:56:24.972Z,12.83
2023-05-06T04:57:21.902Z,12.79
2023-05-06T04:58:19.655Z,12.82
2023-05-06T04:59:16.395Z,12.39
2023-05-06T05:00:14.714Z,11.18
2023-05-06T05:01:11.583Z,13.03
2023-05-06T05:02:08.327Z,13.06
2023-05-06T05:03:05.547Z,12.40
2023-05-06T05:04:02.335Z,13.49
2023-05-06T05:04:59.060Z,12.48
2023-05-06T05:05:55.815Z,13.37
2023-05-06T05:06:52.720Z,13.24
2023-05-06T05:07:49.497Z,13.79
2023-05-06T05:08:46.490Z,12.67
2023-05-06T05:09:43.224Z,12.37
2023-05-06T05:10:46.330Z,11.32
2023-05-06T05:11:43.154Z,12.92
2023-05-06T05:12:39.966Z,12.67
2023-05-06T05:13:37.663Z,12.97
2023-05-06T05:14:34.418Z,11.90
2023-05-06T05:15:31.309Z,12.87
2023-05-06T05:16:28.518Z,13.10
2023-05-06T05:17:25.296Z,13.41
2023-05-06T05:18:22.374Z,12.81
2023-05-06T05:19:19.180Z,12.59
2023-05-06T05:20:16.097Z,13.35
2023-05-06T05:21:13.029Z,12.62
2023-05-06T05:22:09.855Z,13.89
2023-05-06T05:23:06.863Z,13.87
2023-05-06T05:24:04.083Z,12.42
2023-05-06T05:25:00.885Z,13.85
2023-05-06T05:25:57.613Z,12.47
2023-05-06T05:26:54.410Z,13.62
2023-05-06T05:27:51.390Z,13.77
2023-05-06T05:28:48.285Z,12.66
2023-05-06T05:29:45.020Z,12.90
2023-05-06T05:30:41.801Z,12.93
2023-05-06T05:31:38.625Z,12.84
2023-05-06T05:32:35.513Z,13.74
2023-05-06T05:33:32.472Z,14.18
2023-05-06T05:34:30.178Z,14.35
2023-05-06T05:35:26.914Z,14.10
2023-05-06T05:36:24.148Z,11.85
2023-05-06T05:37:20.914Z,14.14
2023-05-06T05:38:18.129Z,13.52
2023-05-06T05:39:14.884Z,14.27
2023-05-06T05:40:11.960Z,13.28
2023-05-06T05:41:08.691Z,13.62
2023-05-06T05:42:05.650Z,13.97
2023-05-06T05:43:02.417Z,13.64
2023-05-06T05:44:17.892Z,13.51
2023-05-06T05:45:14.769Z,12.55
2023-05-06T05:46:11.633Z,13.88
2023-05-06T05:47:08.495Z,14.05
2023-05-06T05:48:05.485Z,13.54
2023-05-06T05:49:02.295Z,14.23
2023-05-06T05:49:59.104Z,14.14
2023-05-06T05:50:55.977Z,13.33
2023-05-06T05:51:52.749Z,14.08
2023-05-06T05:52:49.559Z,14.30
2023-05-06T05:53:46.409Z,13.85
2023-05-06T05:54:43.638Z,14.21
2023-05-06T05:55:40.494Z,14.43
2023-05-06T05:56:37.253Z,13.95
2023-05-06T05:57:34.041Z,13.84
2023-05-06T05:58:30.850Z,14.11
2023-05-06T05:59:28.797Z,13.72
2023-05-06T06:00:25.758Z,11.51
2023-05-06T06:01:22.613Z,13.83
2023-05-06T06:02:19.445Z,12.49
2023-05-06T06:03:18.455Z,12.68
2023-05-06T06:04:16.029Z,13.84
2023-05-06T06:05:12.832Z,13.24
2023-05-06T06:06:09.826Z,13.78
2023-05-06T06:07:06.685Z,13.92
2023-05-06T06:08:04.190Z,13.76
2023-05-06T06:09:01.089Z,13.24
2023-05-06T06:09:57.826Z,13.92
2023-05-06T06:10:54.586Z,13.18
2023-05-06T06:11:51.399Z,13.69
2023-05-06T06:12:48.189Z,14.89
2023-05-06T06:13:44.979Z,13.60
2023-05-06T06:14:41.817Z,14.89
2023-05-06T06:15:38.602Z,13.73
2023-05-06T06:16:36.915Z,14.56
2023-05-06T06:17:33.768Z,13.93
2023-05-06T06:18:30.539Z,14.75
2023-05-06T06:19:27.274Z,13.68
2023-05-06T06:20:24.018Z,14.03
2023-05-06T06:21:20.832Z,14.58
2023-05-06T06:22:17.610Z,14.44
2023-05-06T06:23:14.475Z,14.50
2023-05-06T06:24:13.434Z,14.81
2023-05-06T06:25:10.846Z,14.83
2023-05-06T06:26:08.351Z,13.24
2023-05-06T06:27:06.108Z,14.73
2023-05-06T06:28:02.896Z,14.96
2023-05-06T06:28:59.723Z,14.44
2023-05-06T06:29:56.425Z,13.26
2023-05-06T06:30:53.269Z,14.07
2023-05-06T06:31:50.142Z,14.07
2023-05-06T06:32:53.691Z,14.42
2023-05-06T06:33:50.632Z,14.12
2023-05-06T06:34:47.403Z,14.23
2023-05-06T06:35:44.192Z,15.07
2023-05-06T06:36:45.228Z,15.36
2023-05-06T06:37:42.177Z,15.00
2023-05-06T06:38:38.985Z,15.23
2023-05-06T06:39:35.881Z,15.00
2023-05-06T06:40:32.727Z,15.49
2023-05-06T06:41:29.475Z,13.56
2023-05-06T06:42:27.254Z,15.08
2023-05-06T06:43:24.992Z,14.70
2023-05-06T06:44:21.743Z,15.17
2023-05-06T06:45:19.047Z,14.33
2023-05-06T06:46:16.097Z,14.39
2023-05-06T06:47:12.847Z,14.65
2023-05-06T06:48:09.725Z,15.69
2023-05-06T06:49:06.542Z,15.11
2023-05-06T06:50:03.531Z,14.90
2023-05-06T06:51:00.283Z,15.76
2023-05-06T06:51:57.701Z,15.37
2023-05-06T06:52:54.474Z,15.71
2023-05-06T06:53:52.307Z,14.74
2023-05-06T06:54:49.029Z,15.63
2023-05-06T06:55:46.025Z,14.83
2023-05-06T06:56:42.767Z,15.43
2023-05-06T06:57:40.434Z,14.63
2023-05-06T06:58:37.310Z,15.03
2023-05-06T06:59:34.105Z,14.35
2023-05-06T07:00:30.920Z,15.73
2023-05-06T07:01:27.900Z,15.42
2023-05-06T07:02:24.887Z,14.92
2023-05-06T07:03:21.685Z,13.80
2023-05-06T07:04:18.585Z,15.07
2023-05-06T07:05:15.897Z,14.76
2023-05-06T07:06:12.727Z,14.80
2023-05-06T07:07:09.512Z,16.02
2023-05-06T07:08:06.254Z,15.22
2023-05-06T07:09:03.153Z,16.02
2023-05-06T07:10:00.010Z,15.50
2023-05-06T07:10:57.053Z,14.66
2023-05-06T07:11:53.887Z,15.67
2023-05-06T07:12:50.771Z,15.25
2023-05-06T07:13:47.561Z,15.28
2023-05-06T07:14:44.405Z,14.71
2023-05-06T07:15:41.216Z,15.69
2023-05-06T07:16:38.043Z,15.60
2023-05-06T07:17:34.898Z,15.47
2023-05-06T07:18:31.781Z,15.84
2023-05-06T07:19:29.102Z,14.88
2023-05-06T07:20:25.904Z,13.88
2023-05-06T07:21:22.639Z,15.24
2023-05-06T07:22:19.548Z,15.37
2023-05-06T07:23:16.309Z,15.87
2023-05-06T07:24:13.045Z,15.84
2023-05-06T07:25:10.177Z,16.43
2023-05-06T07:26:07.160Z,16.47
2023-05-06T07:27:04.694Z,15.59
2023-05-06T07:28:01.520Z,16.32
2023-05-06T07:28:58.403Z,16.25
2023-05-06T07:29:55.155Z,15.53
2023-05-06T07:30:53.147Z,15.96
2023-05-06T07:31:49.956Z,15.42
2023-05-06T07:32:46.891Z,15.77
2023-05-06T07:33:43.801Z,16.54
2023-05-06T07:34:40.732Z,15.49
2023-05-06T07:35:37.825Z,16.30
2023-05-06T07:36:40.546Z,15.13
2023-05-06T07:37:37.480Z,16.54
2023-05-06T07:38:34.290Z,16.28
2023-05-06T07:39:31.257Z,15.03
2023-05-06T07:40:28.053Z,16.19
2023-05-06T07:41:24.831Z,15.86
2023-05-06T07:42:21.670Z,16.31
2023-05-06T07:43:18.600Z,15.94
2023-05-06T07:44:15.322Z,15.56
2023-05-06T07:45:12.254Z,17.08
2023-05-06T07:46:09.499Z,16.48
2023-05-06T07:47:06.943Z,16.16
2023-05-06T07:48:04.294Z,16.47
2023-05-06T07:49:01.132Z,16.82
2023-05-06T07:49:59.113Z,16.89
2023-05-06T07:50:56.333Z,16.23
2023-05-06T07:51:53.117Z,16.45
2023-05-06T07:52:49.962Z,16.74
2023-05-06T07:53:46.749Z,16.81
2023-05-06T07:54:43.504Z,16.86
2023-05-06T07:55:40.370Z,16.15
2023-05-06T07:56:37.155Z,17.36
2023-05-06T07:57:33.889Z,16.09
2023-05-06T07:58:32.076Z,16.65
2023-05-06T07:59:28.881Z,16.19
2023-05-06T08:00:25.649Z,16.34
2023-05-06T08:01:22.613Z,17.22
2023-05-06T08:02:19.352Z,17.04
2023-05-06T08:03:17.063Z,17.20
2023-05-06T08:04:14.240Z,17.48
2023-05-06T08:05:11.465Z,15.66
2023-05-06T08:06:08.608Z,16.56
2023-05-06T08:07:05.624Z,17.42
2023-05-06T08:08:02.394Z,17.90
2023-05-06T08:08:59.384Z,17.75
2023-05-06T08:09:56.600Z,17.55
2023-05-06T08:10:57.965Z,16.87
2023-05-06T08:11:54.703Z,16.45
2023-05-06T08:12:51.431Z,17.55
2023-05-06T08:13:48.220Z,17.13
2023-05-06T08:14:45.573Z,16.72
2023-05-06T08:15:42.615Z,17.67
2023-05-06T08:16:39.621Z,17.30
2023-05-06T08:17:36.437Z,17.17
2023-05-06T08:18:33.812Z,17.12
2023-05-06T08:19:30.866Z,18.25
2023-05-06T08:20:27.572Z,18.39
2023-05-06T08:21:24.304Z,18.39
2023-05-06T08:22:21.093Z,17.27
2023-05-06T08:23:17.960Z,18.50
2023-05-06T08:24:15.465Z,17.63
2023-05-06T08:25:12.474Z,17.61
2023-05-06T08:26:09.523Z,16.79
2023-05-06T08:27:06.304Z,15.71
2023-05-06T08:28:03.347Z,17.43
2023-05-06T08:29:00.045Z,16.81
2023-05-06T08:29:57.341Z,16.87
2023-05-06T08:30:54.072Z,18.35
2023-05-06T08:31:50.985Z,18.16
2023-05-06T08:32:47.806Z,18.10
2023-05-06T08:33:44.597Z,17.48
2023-05-06T08:34:41.515Z,17.67
2023-05-06T08:35:38.436Z,17.67
2023-05-06T08:36:35.332Z,18.54
2023-05-06T08:37:32.191Z,18.93
2023-05-06T08:38:28.975Z,18.19
2023-05-06T08:39:25.850Z,18.73
2023-05-06T08:40:24.074Z,18.94
2023-05-06T08:41:22.000Z,18.25
2023-05-06T08:42:18.872Z,18.33
2023-05-06T08:43:21.214Z,18.82
2023-05-06T08:44:19.729Z,18.17
2023-05-06T08:45:19.903Z,17.80
2023-05-06T08:46:18.061Z,19.06
2023-05-06T08:47:14.882Z,18.69
2023-05-06T08:48:12.144Z,19.21
2023-05-06T08:49:10.024Z,18.84
2023-05-06T08:50:07.472Z,18.61
2023-05-06T08:51:04.718Z,18.43
2023-05-06T08:52:05.298Z,18.11
2023-05-06T08:53:03.067Z,18.38
2023-05-06T08:54:02.499Z,18.69
2023-05-06T08:55:05.189Z,19.15
2023-05-06T08:56:06.905Z,18.66
2023-05-06T08:57:10.261Z,16.20
2023-05-06T08:58:10.885Z,17.91
2023-05-06T08:59:10.344Z,17.74
2023-05-06T09:00:11.231Z,17.60
2023-05-06T09:01:09.386Z,18.21
2023-05-06T09:02:06.825Z,17.00
2023-05-06T09:03:03.916Z,18.35
2023-05-06T09:04:03.933Z,18.59
2023-05-06T09:05:01.677Z,18.62
2023-05-06T09:05:58.658Z,18.90
2023-05-06T09:06:57.936Z,18.47
2023-05-06T09:07:54.804Z,18.97
2023-05-06T09:08:51.617Z,18.13
2023-05-06T09:09:49.202Z,18.68
2023-05-06T09:10:46.531Z,17.23
2023-05-06T09:11:43.341Z,19.14
2023-05-06T09:12:40.554Z,19.03
2023-05-06T09:13:37.297Z,18.84
2023-05-06T09:14:34.208Z,18.95
2023-05-06T09:15:41.118Z,17.06
2023-05-06T09:16:39.801Z,17.62
2023-05-06T09:17:37.033Z,19.10
2023-05-06T09:18:37.206Z,17.47
2023-05-06T09:19:38.404Z,19.14
2023-05-06T09:20:35.918Z,18.84
2023-05-06T09:21:51.599Z,18.60
2023-05-06T09:22:49.124Z,18.18
2023-05-06T09:23:46.160Z,18.49
2023-05-06T09:24:43.019Z,17.93
2023-05-06T09:25:40.076Z,18.21
2023-05-06T09:26:38.963Z,19.03
2023-05-06T09:27:36.838Z,17.74
2023-05-06T09:28:33.702Z,17.65
2023-05-06T09:29:30.507Z,18.11
2023-05-06T09:30:27.294Z,18.55
2023-05-06T09:31:25.986Z,18.87
2023-05-06T09:32:23.187Z,17.58
2023-05-06T09:33:21.696Z,19.05
2023-05-06T09:34:18.476Z,19.01
2023-05-06T09:35:15.309Z,19.02
2023-05-06T09:36:13.512Z,19.23
2023-05-06T09:37:10.631Z,18.77
2023-05-06T09:38:08.196Z,18.72
2023-05-06T09:39:06.223Z,19.16
2023-05-06T09:40:03.028Z,18.37
2023-05-06T09:40:59.787Z,18.89
2023-05-06T09:41:57.094Z,18.83
2023-05-06T09:42:53.951Z,18.57
2023-05-06T09:43:55.758Z,18.32
2023-05-06T09:45:02.113Z,18.42
2023-05-06T09:46:02.072Z,18.80
2023-05-06T09:46:59.464Z,19.34
2023-05-06T09:47:57.113Z,18.38
2023-05-06T09:48:56.867Z,18.41
2023-05-06T09:50:00.850Z,18.59
2023-05-06T09:51:01.157Z,19.38
2023-05-06T09:51:59.131Z,19.43
2023-05-06T09:52:56.803Z,17.87
2023-05-06T09:53:56.987Z,18.78
2023-05-06T09:54:55.026Z,18.46
2023-05-06T09:55:54.042Z,19.34
2023-05-06T09:56:52.890Z,19.27
2023-05-06T09:57:50.599Z,18.49
2023-05-06T09:58:49.531Z,19.55
2023-05-06T09:59:48.155Z,19.63
2023-05-06T10:00:45.540Z,19.26
2023-05-06T10:01:42.642Z,19.32
2023-05-06T10:02:41.111Z,19.56
2023-05-06T10:03:42.156Z,18.79
2023-05-06T10:04:42.452Z,19.34
2023-05-06T10:05:39.581Z,19.23
2023-05-06T10:06:39.844Z,19.13
2023-05-06T10:07:37.175Z,18.01
2023-05-06T10:08:35.177Z,18.85
2023-05-06T10:09:33.246Z,17.46
2023-05-06T10:10:31.273Z,19.64
2023-05-06T10:11:31.709Z,19.90
2023-05-06T10:12:29.952Z,19.22
2023-05-06T10:13:27.567Z,18.97
2023-05-06T10:14:25.660Z,19.17
2023-05-06T10:15:26.013Z,18.16
2023-05-06T10:16:23.609Z,19.88
2023-05-06T10:17:25.255Z,18.39
2023-05-06T10:18:23.878Z,19.49
2023-05-06T10:19:27.670Z,19.09
2023-05-06T10:20:26.460Z,18.93
2023-05-06T10:21:27.801Z,18.87
2023-05-06T10:23:08.145Z,19.17
2023-05-06T10:24:09.468Z,18.81
2023-05-06T10:25:19.408Z,17.82
2023-05-06T10:26:18.156Z,18.67
2023-05-06T10:27:21.313Z,18.67
2023-05-06T10:28:24.797Z,19.00
2023-05-06T10:29:27.532Z,18.39
2023-05-06T10:30:26.580Z,19.33
2023-05-06T10:31:23.384Z,17.37
2023-05-06T10:32:22.330Z,19.26
2023-05-06T10:33:24.748Z,19.38
2023-05-06T10:34:24.292Z,18.32
2023-05-06T10:35:36.398Z,16.99
2023-05-06T10:36:36.721Z,17.55
2023-05-06T10:37:36.078Z,18.45
2023-05-06T10:38:37.685Z,18.93
2023-05-06T10:39:34.674Z,19.20
2023-05-06T10:40:32.595Z,18.79
2023-05-06T10:41:30.969Z,19.31
2023-05-06T10:42:30.641Z,19.05
2023-05-06T10:43:33.082Z,18.71
2023-05-06T10:44:57.501Z,19.75
2023-05-06T10:46:15.661Z,19.72
2023-05-06T10:47:13.106Z,19.86
2023-05-06T10:48:10.154Z,18.91
2023-05-06T10:49:08.599Z,20.01
2023-05-06T10:50:23.688Z,19.44
2023-05-06T10:51:20.422Z,20.22
2023-05-06T10:52:17.422Z,19.83
2023-05-06T10:53:14.184Z,19.01
2023-05-06T10:54:22.734Z,18.82
2023-05-06T10:55:37.887Z,19.57
2023-05-06T10:56:37.398Z,19.84
2023-05-06T10:57:41.308Z,20.34
2023-05-06T10:58:38.121Z,20.06
2023-05-06T10:59:35.005Z,19.96
2023-05-06T11:00:35.335Z,20.36
2023-05-06T11:01:32.212Z,20.23
2023-05-06T11:02:31.012Z,19.54
2023-05-06T11:03:28.099Z,18.95
2023-05-06T11:04:24.995Z,19.86
2023-05-06T11:05:23.034Z,20.61
2023-05-06T11:06:34.092Z,20.35
2023-05-06T11:07:31.900Z,19.96
2023-05-06T11:08:29.034Z,18.88
2023-05-06T11:09:28.607Z,20.43
2023-05-06T11:10:34.717Z,19.44
2023-05-06T11:11:53.341Z,19.23
2023-05-06T11:12:52.720Z,19.79
2023-05-06T11:13:53.340Z,19.59
2023-05-06T11:14:50.189Z,18.82
2023-05-06T11:15:47.463Z,20.27
2023-05-06T11:16:49.640Z,19.88
2023-05-06T11:17:46.508Z,20.58
2023-05-06T11:18:44.221Z,19.63
2023-05-06T11:19:41.103Z,19.85
2023-05-06T11:20:37.868Z,19.55
2023-05-06T11:21:34.686Z,20.34
2023-05-06T11:22:43.627Z,19.52
2023-05-06T11:24:01.154Z,20.10
2023-05-06T11:24:58.175Z,19.05
2023-05-06T11:25:58.326Z,19.57
2023-05-06T11:26:57.946Z,19.35
2023-05-06T11:27:56.250Z,18.54
2023-05-06T11:28:53.010Z,19.78
2023-05-06T11:29:49.761Z,18.70
2023-05-06T11:30:55.932Z,19.58
2023-05-06T11:31:54.129Z,18.61
2023-05-06T11:32:55.997Z,18.91
2023-05-06T11:33:55.124Z,18.87
2023-05-06T11:34:56.945Z,19.11
2023-05-06T11:35:53.655Z,19.36
2023-05-06T11:36:56.860Z,19.46
2023-05-06T11:37:53.679Z,19.38
2023-05-06T11:38:56.465Z,18.91
2023-05-06T11:39:53.524Z,19.17
2023-05-06T11:40:50.366Z,17.89
2023-05-06T11:41:49.832Z,17.22
2023-05-06T11:42:46.683Z,19.29
2023-05-06T11:43:49.950Z,19.59
2023-05-06T11:44:46.815Z,19.14
2023-05-06T11:45:46.358Z,19.81
2023-05-06T11:46:43.977Z,19.45
2023-05-06T11:47:44.236Z,20.15
2023-05-06T11:48:41.118Z,20.25
2023-05-06T11:49:40.868Z,18.35
2023-05-06T11:50:37.657Z,19.92
2023-05-06T11:51:34.518Z,19.37
2023-05-06T11:52:31.363Z,20.34
2023-05-06T11:53:30.161Z,20.59
2023-05-06T11:54:27.586Z,19.82
2023-05-06T11:55:24.975Z,20.32
2023-05-06T11:56:21.757Z,19.40
2023-05-06T11:57:20.635Z,19.76
2023-05-06T11:58:20.065Z,19.23
2023-05-06T11:59:18.791Z,20.33
2023-05-06T12:00:15.993Z,20.88
2023-05-06T12:01:12.724Z,20.66
2023-05-06T12:02:12.936Z,19.62
2023-05-06T12:03:14.675Z,20.09
2023-05-06T12:04:13.213Z,20.20
2023-05-06T12:05:10.353Z,20.42
2023-05-06T12:06:07.198Z,20.80
2023-05-06T12:07:06.457Z,20.82
2023-05-06T12:08:06.324Z,19.95
2023-05-06T12:09:08.781Z,20.94
2023-05-06T12:10:06.738Z,20.06
2023-05-06T12:11:11.854Z,19.72
2023-05-06T12:12:10.526Z,20.22
2023-05-06T12:13:08.018Z,20.93
2023-05-06T12:14:09.121Z,20.20
2023-05-06T12:15:06.993Z,19.53
2023-05-06T12:16:05.770Z,20.80
2023-05-06T12:17:03.748Z,19.88
2023-05-06T12:18:01.792Z,19.45
2023-05-06T12:18:58.795Z,20.48
2023-05-06T12:19:56.166Z,20.88
2023-05-06T12:20:57.539Z,20.66
2023-05-06T12:21:54.509Z,20.11
2023-05-06T12:23:12.434Z,20.96
2023-05-06T12:24:09.378Z,21.09
2023-05-06T12:25:16.348Z,19.90
2023-05-06T12:26:13.120Z,18.72
2023-05-06T12:27:09.952Z,18.64
2023-05-06T12:28:19.736Z,19.91
2023-05-06T12:29:18.055Z,20.39
2023-05-06T12:30:15.107Z,20.40
2023-05-06T12:31:19.424Z,19.81
2023-05-06T12:32:16.286Z,19.35
2023-05-06T12:33:13.355Z,19.68
2023-05-06T12:34:10.782Z,20.01
2023-05-06T12:35:09.614Z,18.98
2023-05-06T12:36:07.475Z,19.56
2023-05-06T12:37:05.244Z,17.58
2023-05-06T12:38:14.175Z,19.42
2023-05-06T12:39:11.844Z,18.51